Time;durP1;ratioP1;P1;durP2;ratioP2;P2;SDS_P1;SDS_P2;PMS_P1;PMS_P2;Temp;Humidity;BMP_temperature;BMP_pressure;BME280_temperature;BME280_humidity;BME280_pressure;Samples;Min_cycle;Max_cycle;Signal;HPM_P1;HPM_P2
2023/03/27 00:01:05;;;;;;;1.92;1.15;;;5.20;99.90;;;;;;5028320;28;20041;-72
2023/03/27 00:03:31;;;;;;;3.30;1.60;;;5.30;99.90;;;;;;5039000;28;20472;-72
2023/03/27 00:06:00;;;;;;;1.83;0.95;;;5.30;99.90;;;;;;5042977;28;20040;-72
2023/03/27 00:08:26;;;;;;;4.00;1.38;;;5.20;99.90;;;;;;5041891;28;20157;-72
2023/03/27 00:10:52;;;;;;;3.53;1.48;;;5.20;99.90;;;;;;5040936;28;20858;-72
2023/03/27 00:13:18;;;;;;;4.30;1.70;;;5.20;99.90;;;;;;5032109;28;20041;-72
2023/03/27 00:15:45;;;;;;;3.13;1.30;;;5.20;99.90;;;;;;5035767;28;20470;-72
2023/03/27 00:18:12;;;;;;;5.60;1.40;;;5.30;99.90;;;;;;5041277;28;20120;-72
2023/03/27 00:20:38;;;;;;;2.08;1.38;;;5.20;99.90;;;;;;5033464;28;20053;-72
2023/03/27 00:23:05;;;;;;;3.03;1.40;;;5.20;99.90;;;;;;5043438;28;20388;-72
2023/03/27 00:25:32;;;;;;;4.93;1.60;;;5.20;99.90;;;;;;5038922;28;20309;-72
2023/03/27 00:27:58;;;;;;;2.35;1.30;;;5.20;99.90;;;;;;5040343;28;20039;-72
2023/03/27 00:30:27;;;;;;;4.80;2.25;;;5.20;99.90;;;;;;5028938;28;20561;-72
2023/03/27 00:32:54;;;;;;;2.97;1.35;;;5.20;99.90;;;;;;5038365;28;20033;-72
2023/03/27 00:35:24;;;;;;;4.20;1.63;;;5.20;99.90;;;;;;5040150;28;20080;-72
2023/03/27 00:37:49;;;;;;;3.17;1.73;;;5.20;99.90;;;;;;5030487;28;20104;-72
2023/03/27 00:40:18;;;;;;;3.22;1.70;;;5.20;99.90;;;;;;5044042;28;20035;-72
2023/03/27 00:42:47;;;;;;;3.10;1.70;;;5.20;99.90;;;;;;5037455;28;20025;-72
2023/03/27 00:45:16;;;;;;;2.75;1.50;;;5.20;99.90;;;;;;5030002;28;20091;-72
2023/03/27 00:47:43;;;;;;;5.27;1.50;;;5.30;99.90;;;;;;5028043;28;20048;-72
2023/03/27 00:50:13;;;;;;;2.28;1.33;;;5.30;99.90;;;;;;5041564;28;20048;-72
2023/03/27 00:52:41;;;;;;;4.30;1.38;;;5.30;99.90;;;;;;5037973;28;20112;-72
2023/03/27 00:55:13;;;;;;;4.57;1.77;;;5.30;99.90;;;;;;5035805;28;20029;-72
2023/03/27 00:57:41;;;;;;;2.28;1.13;;;5.30;99.90;;;;;;5045488;28;20109;-72
2023/03/27 01:00:12;;;;;;;3.00;1.48;;;5.30;99.90;;;;;;5040822;28;20112;-72
2023/03/27 01:02:39;;;;;;;2.90;1.52;;;5.30;99.90;;;;;;5043477;28;20056;-72
2023/03/27 01:05:06;;;;;;;2.58;1.25;;;5.30;99.90;;;;;;5048736;28;20032;-72
2023/03/27 01:07:32;;;;;;;2.25;1.30;;;5.30;99.90;;;;;;5047197;28;20037;-72
2023/03/27 01:09:59;;;;;;;3.17;0.95;;;5.40;99.90;;;;;;5043537;28;20039;-72
2023/03/27 01:12:48;;;;;;;2.42;1.20;;;5.40;99.90;;;;;;5041137;28;20037;-72
2023/03/27 01:15:31;;;;;;;1.58;0.88;;;5.40;99.90;;;;;;5029619;28;20065;-72
2023/03/27 01:18:18;;;;;;;1.60;1.00;;;5.40;99.90;;;;;;5047912;28;20359;-72
2023/03/27 01:21:08;;;;;;;4.55;1.23;;;5.50;99.90;;;;;;5037317;28;20055;-72
2023/03/27 01:24:03;;;;;;;1.55;0.85;;;5.50;99.90;;;;;;5027614;28;20041;-72
2023/03/27 01:26:56;;;;;;;2.60;1.00;;;5.50;99.90;;;;;;5038924;28;20033;-72
2023/03/27 01:29:37;;;;;;;1.10;0.63;;;5.60;99.90;;;;;;5033865;28;20040;-73
2023/03/27 01:32:21;;;;;;;1.35;0.82;;;5.60;99.90;;;;;;5039355;28;20102;-72
2023/03/27 01:35:32;;;;;;;1.10;0.68;;;5.70;99.90;;;;;;5048427;28;20523;-72
2023/03/27 01:38:22;;;;;;;1.63;0.73;;;5.60;99.90;;;;;;5012619;28;20045;-72
2023/03/27 01:41:02;;;;;;;2.85;0.50;;;5.70;99.90;;;;;;5036986;28;20474;-72
2023/03/27 01:43:34;;;;;;;1.40;0.60;;;5.70;99.90;;;;;;5031525;28;20082;-72
2023/03/27 01:46:07;;;;;;;0.82;0.40;;;5.70;99.90;;;;;;5030420;28;20108;-73
2023/03/27 01:48:38;;;;;;;0.70;0.47;;;5.70;99.90;;;;;;5040356;28;20029;-72
2023/03/27 01:51:16;;;;;;;1.48;0.47;;;5.60;99.90;;;;;;5033373;28;20040;-72
2023/03/27 01:53:50;;;;;;;0.65;0.45;;;5.70;99.90;;;;;;5050552;28;20064;-72
2023/03/27 01:56:25;;;;;;;0.63;0.35;;;5.60;99.90;;;;;;5050251;28;20052;-72
2023/03/27 01:58:57;;;;;;;0.60;0.30;;;5.60;99.90;;;;;;5041594;28;20081;-72
2023/03/27 02:01:30;;;;;;;0.35;0.15;;;5.60;99.90;;;;;;5023668;28;20030;-72
2023/03/27 02:03:58;;;;;;;0.43;0.20;;;5.60;99.90;;;;;;5029680;28;20111;-73
2023/03/27 02:06:30;;;;;;;0.68;0.20;;;5.50;99.90;;;;;;5041265;28;20028;-72
2023/03/27 02:09:08;;;;;;;1.27;0.40;;;5.50;99.90;;;;;;5042077;28;20025;-72
2023/03/27 02:11:43;;;;;;;3.33;0.25;;;5.50;99.90;;;;;;5037047;28;20041;-72
2023/03/27 02:14:18;;;;;;;0.47;0.20;;;5.40;99.90;;;;;;5026681;28;20038;-72
2023/03/27 02:16:50;;;;;;;0.88;0.43;;;5.40;99.90;;;;;;5033228;28;20535;-72
2023/03/27 02:19:22;;;;;;;1.00;0.50;;;5.30;99.90;;;;;;5040250;28;20109;-73
2023/03/27 02:21:48;;;;;;;2.60;0.45;;;5.30;99.90;;;;;;5034676;28;20091;-73
2023/03/27 02:24:17;;;;;;;0.85;0.50;;;5.30;99.90;;;;;;5040385;28;20021;-73
2023/03/27 02:26:43;;;;;;;1.30;0.60;;;5.30;99.90;;;;;;5040667;28;20095;-72
2023/03/27 02:29:12;;;;;;;1.98;0.60;;;5.20;99.90;;;;;;5037335;28;20433;-72
2023/03/27 02:31:56;;;;;;;1.33;0.63;;;5.10;99.90;;;;;;5036782;28;20066;-72
2023/03/27 02:34:49;;;;;;;1.23;0.52;;;5.10;99.90;;;;;;5035106;28;20030;-72
2023/03/27 02:37:41;;;;;;;2.72;0.90;;;5.00;99.90;;;;;;5028881;28;20500;-72
2023/03/27 02:40:19;;;;;;;1.27;0.60;;;5.00;99.90;;;;;;5038306;28;20034;-72
2023/03/27 02:43:06;;;;;;;1.50;0.63;;;5.00;99.90;;;;;;5027459;28;20262;-73
2023/03/27 02:45:57;;;;;;;1.13;0.60;;;5.00;99.90;;;;;;5029638;28;20065;-72
2023/03/27 02:48:32;;;;;;;;;;;4.90;99.90;;;;;;5050430;28;20053;-72
2023/03/27 02:51:16;;;;;;;1.33;0.60;;;4.90;99.90;;;;;;5039288;28;19917;-73
2023/03/27 02:53:51;;;;;;;1.90;0.90;;;4.90;99.90;;;;;;5030171;28;20236;-73
2023/03/27 02:56:21;;;;;;;2.47;0.75;;;4.90;99.90;;;;;;5041007;28;20032;-72
2023/03/27 02:59:09;;;;;;;2.28;1.10;;;4.80;99.90;;;;;;5048065;28;20641;-72
2023/03/27 03:01:37;;;;;;;2.00;1.00;;;4.80;99.90;;;;;;5033322;28;20082;-72
2023/03/27 03:04:23;;;;;;;1.52;0.90;;;4.70;99.90;;;;;;5030101;28;20075;-72
2023/03/27 03:06:49;;;;;;;3.05;1.17;;;4.70;99.90;;;;;;5034101;28;20172;-72
2023/03/27 03:09:17;;;;;;;2.13;0.85;;;4.60;99.90;;;;;;5035340;28;20076;-72
2023/03/27 03:11:47;;;;;;;4.03;1.20;;;4.60;99.90;;;;;;5032261;28;20037;-72
2023/03/27 03:14:13;;;;;;;2.65;0.80;;;4.50;99.90;;;;;;5021220;28;20477;-72
2023/03/27 03:16:38;;;;;;;2.95;1.00;;;4.40;99.90;;;;;;5026836;28;20059;-72
2023/03/27 03:19:04;;;;;;;2.00;0.90;;;4.30;99.90;;;;;;5021889;28;20021;-72
2023/03/27 03:21:30;;;;;;;2.38;0.98;;;4.30;99.90;;;;;;5036507;28;20135;-72
2023/03/27 03:23:56;;;;;;;3.25;1.10;;;4.30;99.90;;;;;;5035733;28;20261;-72
2023/03/27 03:26:22;;;;;;;2.75;0.95;;;4.30;99.90;;;;;;5037558;28;20108;-73
2023/03/27 03:28:47;;;;;;;2.50;1.00;;;4.30;99.90;;;;;;5032119;28;20036;-72
2023/03/27 03:31:14;;;;;;;2.10;1.13;;;4.20;99.90;;;;;;5040191;28;20094;-72
2023/03/27 03:33:39;;;;;;;2.28;1.10;;;4.20;99.90;;;;;;5033220;28;20030;-72
2023/03/27 03:36:05;;;;;;;2.60;1.08;;;4.20;99.90;;;;;;5021732;28;20028;-73
2023/03/27 03:38:33;;;;;;;2.92;1.10;;;4.10;99.90;;;;;;5022485;28;20026;-72
2023/03/27 03:41:00;;;;;;;3.55;1.00;;;4.10;99.90;;;;;;5029985;28;20033;-72
2023/03/27 03:43:28;;;;;;;1.88;0.80;;;3.90;99.90;;;;;;5042939;28;20393;-73
2023/03/27 03:45:54;;;;;;;2.17;1.00;;;3.90;99.90;;;;;;5030351;28;20029;-72
2023/03/27 03:48:22;;;;;;;2.50;1.00;;;3.90;99.90;;;;;;5032060;28;20021;-72
2023/03/27 03:50:48;;;;;;;3.10;0.90;;;3.80;99.90;;;;;;5028910;28;20099;-72
2023/03/27 03:53:16;;;;;;;3.13;0.90;;;3.70;99.90;;;;;;5043641;28;20112;-72
2023/03/27 03:55:42;;;;;;;1.40;0.73;;;3.70;99.90;;;;;;5011910;28;20117;-74
2023/03/27 03:58:08;;;;;;;1.25;0.60;;;3.60;99.90;;;;;;5018634;28;20029;-74
2023/03/27 04:00:38;;;;;;;2.85;1.00;;;3.50;99.90;;;;;;5046332;28;20435;-76
2023/03/27 04:03:06;;;;;;;2.33;1.10;;;3.50;99.90;;;;;;5034334;28;20037;-75
2023/03/27 04:05:33;;;;;;;2.63;1.00;;;3.40;99.90;;;;;;5028111;28;20628;-71
2023/03/27 04:07:58;;;;;;;4.00;1.42;;;3.40;99.90;;;;;;5032010;28;20029;-79
2023/03/27 04:10:25;;;;;;;4.03;1.13;;;3.20;99.90;;;;;;5040735;28;20041;-79
2023/03/27 04:12:51;;;;;;;4.05;1.20;;;3.10;99.90;;;;;;5036275;28;20036;-76
2023/03/27 04:15:17;;;;;;;4.97;1.42;;;3.00;99.90;;;;;;5027919;28;20198;-77
2023/03/27 04:17:43;;;;;;;3.55;1.52;;;3.00;99.90;;;;;;5033810;28;20116;-74
2023/03/27 04:20:11;;;;;;;7.03;1.40;;;2.90;99.90;;;;;;5039382;28;20135;-78
2023/03/27 04:22:37;;;;;;;4.15;1.45;;;2.80;99.90;;;;;;5034033;28;20087;-74
2023/03/27 04:25:07;;;;;;;3.58;1.02;;;2.70;99.90;;;;;;5035194;28;20083;-73
2023/03/27 04:27:34;;;;;;;2.78;0.98;;;2.60;99.90;;;;;;5033444;28;20060;-71
2023/03/27 04:30:01;;;;;;;2.60;1.13;;;2.60;99.90;;;;;;5035731;28;20026;-74
2023/03/27 04:32:28;;;;;;;3.15;0.95;;;2.50;99.90;;;;;;5036156;28;20032;-75
2023/03/27 04:34:53;;;;;;;6.55;1.48;;;2.40;99.90;;;;;;5034830;28;20039;-74
2023/03/27 04:37:21;;;;;;;5.75;1.65;;;2.40;99.90;;;;;;5030993;28;20114;-74
2023/03/27 04:39:47;;;;;;;4.03;1.50;;;2.30;99.90;;;;;;5032898;28;20861;-76
2023/03/27 04:42:13;;;;;;;3.83;1.58;;;2.30;99.90;;;;;;5038990;28;20033;-75
2023/03/27 04:44:39;;;;;;;9.50;2.42;;;2.30;99.90;;;;;;5029665;28;20481;-75
2023/03/27 04:47:06;;;;;;;6.97;1.85;;;2.30;99.90;;;;;;5034149;28;20025;-75
2023/03/27 04:49:45;;;;;;;13.23;2.42;;;2.20;99.90;;;;;;5039097;28;21071;-72
2023/03/27 04:52:13;;;;;;;6.28;2.20;;;2.10;99.90;;;;;;5037586;28;20073;-75
2023/03/27 04:54:39;;;;;;;9.65;2.40;;;2.20;99.90;;;;;;5030994;28;20045;-72
2023/03/27 04:57:06;;;;;;;10.45;2.50;;;2.20;99.90;;;;;;5022776;28;20108;-74
2023/03/27 04:59:32;;;;;;;8.50;2.63;;;2.10;99.90;;;;;;5037382;28;20029;-71
2023/03/27 05:02:00;;;;;;;9.68;2.60;;;2.20;99.90;;;;;;5031551;28;20108;-74
2023/03/27 05:04:26;;;;;;;6.32;2.08;;;2.10;99.90;;;;;;5042040;28;20459;-75
2023/03/27 05:06:53;;;;;;;11.07;3.20;;;2.10;99.90;;;;;;5024147;28;20048;-73
2023/03/27 05:09:19;;;;;;;8.50;3.45;;;2.20;99.90;;;;;;5038893;28;20071;-73
2023/03/27 05:11:48;;;;;;;15.98;4.05;;;2.20;99.90;;;;;;5038827;28;20458;-75
2023/03/27 05:14:16;;;;;;;12.85;3.17;;;2.30;99.90;;;;;;5044017;28;20061;-74
2023/03/27 05:16:41;;;;;;;15.00;3.50;;;2.30;99.90;;;;;;5036906;28;20033;-75
2023/03/27 05:19:07;;;;;;;13.18;3.78;;;2.30;99.90;;;;;;5038113;28;20570;-74
2023/03/27 05:21:33;;;;;;;14.40;4.00;;;2.30;99.90;;;;;;5037690;28;20049;-70
2023/03/27 05:23:58;;;;;;;14.45;4.40;;;2.30;99.90;;;;;;5031945;28;20087;-75
2023/03/27 05:26:24;;;;;;;22.33;4.22;;;2.30;99.90;;;;;;5045408;28;20075;-74
2023/03/27 05:28:51;;;;;;;18.08;4.35;;;2.30;99.90;;;;;;5032814;28;20402;-71
2023/03/27 05:31:18;;;;;;;14.13;4.63;;;2.30;99.90;;;;;;5036260;28;20465;-76
2023/03/27 05:33:43;;;;;;;13.68;4.78;;;2.40;99.90;;;;;;5034978;28;20040;-74
2023/03/27 05:36:10;;;;;;;18.55;4.80;;;2.40;99.90;;;;;;5032230;28;20021;-75
2023/03/27 05:38:35;;;;;;;16.50;4.50;;;2.40;99.90;;;;;;5036775;28;20029;-72
2023/03/27 05:41:01;;;;;;;13.32;4.50;;;2.30;99.90;;;;;;5029645;28;20081;-74
2023/03/27 05:43:27;;;;;;;18.73;4.97;;;2.30;99.90;;;;;;5039621;28;20649;-77
2023/03/27 05:45:52;;;;;;;15.70;4.70;;;2.30;99.90;;;;;;5022013;28;20030;-72
2023/03/27 05:48:18;;;;;;;18.98;4.82;;;2.30;99.90;;;;;;5055672;28;20033;-76
2023/03/27 05:50:44;;;;;;;14.27;4.28;;;2.30;99.90;;;;;;5025842;28;20064;-74
2023/03/27 05:53:10;;;;;;;18.60;4.20;;;2.30;99.90;;;;;;5036677;28;20103;-74
2023/03/27 05:55:37;;;;;;;19.80;4.75;;;2.30;99.90;;;;;;5036449;28;20033;-70
2023/03/27 05:58:04;;;;;;;22.83;4.53;;;2.30;99.90;;;;;;5024852;28;20082;-73
2023/03/27 06:00:32;;;;;;;18.98;4.72;;;2.30;99.90;;;;;;5023406;28;20040;-72
2023/03/27 06:03:00;;;;;;;15.77;4.57;;;2.30;99.90;;;;;;5026576;28;20156;-73
2023/03/27 06:05:28;;;;;;;14.90;4.13;;;2.30;99.90;;;;;;5031227;28;20037;-71
2023/03/27 06:07:57;;;;;;;15.85;3.92;;;2.40;99.90;;;;;;5034734;28;20133;-69
2023/03/27 06:10:23;;;;;;;16.42;4.53;;;2.40;99.90;;;;;;5030540;28;20029;-70
2023/03/27 06:13:01;;;;;;;16.35;4.60;;;2.40;99.90;;;;;;5041275;28;20055;-73
2023/03/27 06:15:27;;;;;;;17.45;4.88;;;2.30;99.90;;;;;;5029319;28;20575;-71
2023/03/27 06:17:53;;;;;;;15.93;4.18;;;2.30;99.90;;;;;;5027620;28;20033;-70
2023/03/27 06:20:20;;;;;;;15.13;4.25;;;2.30;99.90;;;;;;4995363;28;1117648;-71
2023/03/27 06:22:48;;;;;;;12.30;4.07;;;2.30;99.90;;;;;;5032035;28;20440;-71
2023/03/27 06:25:15;;;;;;;13.60;4.35;;;2.30;99.90;;;;;;5028619;28;20466;-73
2023/03/27 06:27:46;;;;;;;18.60;4.28;;;2.40;99.90;;;;;;5032719;28;20032;-70
2023/03/27 06:30:13;;;;;;;15.10;3.80;;;2.40;99.90;;;;;;5030968;28;20034;-69
2023/03/27 06:32:51;;;;;;;21.92;4.60;;;2.40;99.90;;;;;;5037753;28;20388;-67
2023/03/27 06:35:18;;;;;;;10.05;4.10;;;2.40;99.90;;;;;;5034348;28;20028;-72
2023/03/27 06:37:45;;;;;;;13.63;3.92;;;2.40;99.90;;;;;;5044778;28;20056;-70
2023/03/27 06:40:21;;;;;;;11.75;4.38;;;2.40;99.90;;;;;;5031095;28;20407;-71
2023/03/27 06:42:53;;;;;;;20.40;4.55;;;2.30;99.90;;;;;;5026804;28;20105;-71
2023/03/27 06:45:21;;;;;;;16.83;4.85;;;2.30;99.90;;;;;;5034225;28;20033;-70
2023/03/27 06:47:51;;;;;;;26.52;5.30;;;2.30;99.90;;;;;;5031164;28;20032;-74
2023/03/27 06:50:17;;;;;;;14.73;4.60;;;2.40;99.90;;;;;;5040937;28;20104;-74
2023/03/27 06:52:43;;;;;;;13.63;4.25;;;2.40;99.90;;;;;;5033490;28;20045;-72
2023/03/27 06:55:08;;;;;;;8.95;4.03;;;2.40;99.90;;;;;;5043292;28;20466;-72
2023/03/27 06:57:35;;;;;;;19.55;4.57;;;2.40;99.90;;;;;;5026767;28;20078;-71
2023/03/27 07:00:11;;;;;;;11.70;4.20;;;2.40;99.90;;;;;;5035603;28;20755;-71
2023/03/27 07:02:37;;;;;;;15.50;4.10;;;2.40;99.90;;;;;;5030716;28;20038;-68
2023/03/27 07:05:03;;;;;;;14.95;4.38;;;2.50;99.90;;;;;;5032978;28;20029;-71
2023/03/27 07:07:29;;;;;;;12.13;4.35;;;2.50;99.90;;;;;;5027164;28;20030;-70
2023/03/27 07:09:54;;;;;;;16.13;3.90;;;2.50;99.90;;;;;;5038341;28;20047;-72
2023/03/27 07:12:20;;;;;;;19.08;4.95;;;2.50;99.90;;;;;;5043815;28;20025;-77
2023/03/27 07:14:45;;;;;;;14.45;4.68;;;2.50;99.90;;;;;;5039496;28;20123;-73
2023/03/27 07:17:11;;;;;;;18.23;4.70;;;2.50;99.90;;;;;;5043515;28;20104;-73
2023/03/27 07:19:37;;;;;;;20.88;4.20;;;2.50;99.90;;;;;;5037194;28;20112;-75
2023/03/27 07:22:02;;;;;;;15.07;4.35;;;2.60;99.90;;;;;;5021536;28;20053;-73
2023/03/27 07:24:28;;;;;;;15.35;4.05;;;2.50;99.90;;;;;;5036965;28;20732;-73
2023/03/27 07:26:56;;;;;;;19.80;4.57;;;2.50;99.90;;;;;;5029643;28;20034;-73
2023/03/27 07:29:22;;;;;;;17.02;4.55;;;2.50;99.90;;;;;;5038784;28;20104;-72
2023/03/27 07:31:48;;;;;;;10.48;3.92;;;2.60;99.90;;;;;;5028442;28;20139;-75
2023/03/27 07:34:14;;;;;;;14.20;4.35;;;2.50;99.90;;;;;;5028530;28;20623;-72
2023/03/27 07:36:39;;;;;;;14.73;4.75;;;2.50;99.90;;;;;;5015557;28;20034;-69
2023/03/27 07:39:05;;;;;;;13.00;4.70;;;2.50;99.90;;;;;;5029937;28;20044;-74
2023/03/27 07:41:31;;;;;;;17.95;3.95;;;2.50;99.90;;;;;;5023800;28;20389;-70
2023/03/27 07:43:57;;;;;;;17.17;4.28;;;2.60;99.90;;;;;;5023664;28;20034;-73
2023/03/27 07:46:22;;;;;;;15.27;4.60;;;2.60;99.90;;;;;;5020380;28;20833;-73
2023/03/27 07:48:49;;;;;;;14.25;4.18;;;2.70;99.90;;;;;;5022503;28;20033;-76
2023/03/27 07:51:16;;;;;;;10.90;3.85;;;2.60;99.90;;;;;;5037840;28;20053;-72
2023/03/27 07:53:42;;;;;;;18.80;4.70;;;2.60;99.90;;;;;;5032917;28;20045;-69
2023/03/27 07:56:09;;;;;;;13.70;4.13;;;2.60;99.90;;;;;;5020729;28;20022;-77
2023/03/27 07:58:35;;;;;;;16.85;4.03;;;2.60;99.90;;;;;;5030142;28;20108;-69
2023/03/27 08:01:02;;;;;;;12.93;4.45;;;2.70;99.90;;;;;;5006765;28;20030;-73
2023/03/27 08:03:29;;;;;;;11.75;4.30;;;2.70;99.90;;;;;;5023000;28;20048;-73
2023/03/27 08:05:56;;;;;;;16.08;4.13;;;2.80;99.90;;;;;;5028711;28;20041;-75
2023/03/27 08:08:23;;;;;;;12.15;3.88;;;2.80;99.90;;;;;;5036225;28;20034;-73
2023/03/27 08:10:49;;;;;;;18.35;4.50;;;2.80;99.90;;;;;;5041028;28;20029;-72
2023/03/27 08:13:15;;;;;;;14.85;4.50;;;2.80;99.90;;;;;;5041016;28;20029;-75
2023/03/27 08:15:41;;;;;;;20.05;4.78;;;2.70;99.90;;;;;;5040020;28;20048;-70
2023/03/27 08:18:10;;;;;;;14.52;4.38;;;2.80;99.90;;;;;;5022896;28;20694;-75
2023/03/27 08:20:36;;;;;;;18.27;4.60;;;2.90;99.90;;;;;;5032496;28;20053;-72
2023/03/27 08:23:05;;;;;;;13.77;4.35;;;3.10;99.90;;;;;;5035542;28;20651;-71
2023/03/27 08:25:34;;;;;;;10.10;3.85;;;3.20;99.90;;;;;;5042432;28;20022;-74
2023/03/27 08:28:03;;;;;;;18.00;4.53;;;3.20;99.90;;;;;;5035047;28;20034;-76
2023/03/27 08:30:28;;;;;;;12.35;4.65;;;3.20;99.90;;;;;;5028219;28;20040;-73
2023/03/27 08:32:55;;;;;;;13.57;4.00;;;3.40;99.90;;;;;;5019901;28;20328;-74
2023/03/27 08:35:21;;;;;;;15.02;3.53;;;3.60;99.90;;;;;;5030230;28;20029;-77
2023/03/27 08:37:47;;;;;;;16.60;3.75;;;3.60;99.90;;;;;;5025277;28;20041;-70
2023/03/27 08:40:24;;;;;;;12.13;3.78;;;3.60;99.90;;;;;;5039932;28;20112;-76
2023/03/27 08:42:54;;;;;;;13.10;3.70;;;3.70;99.90;;;;;;5033625;28;20032;-74
2023/03/27 08:45:28;;;;;;;13.13;3.50;;;3.60;99.90;;;;;;5026101;28;20029;-73
2023/03/27 08:48:11;;;;;;;12.77;3.10;;;3.70;99.90;;;;;;5025591;28;20136;-74
2023/03/27 08:50:48;;;;;;;7.95;3.20;;;3.70;99.90;;;;;;5034771;28;20086;-72
2023/03/27 08:53:35;;;;;;;12.68;3.20;;;3.90;99.90;;;;;;5037407;28;20041;-74
2023/03/27 08:56:02;;;;;;;12.10;3.05;;;4.30;99.90;;;;;;5027592;28;20033;-73
2023/03/27 08:58:29;;;;;;;11.90;2.83;;;4.40;99.90;;;;;;5035052;28;20037;-73
2023/03/27 09:01:30;;;;;;;7.78;2.58;;;4.70;99.90;;;;;;5038269;28;20041;-71
2023/03/27 09:04:11;;;;;;;8.45;2.45;;;5.00;99.90;;;;;;5027213;28;20084;-71
2023/03/27 09:06:43;;;;;;;8.68;2.47;;;5.10;99.90;;;;;;5038677;28;20029;-74
2023/03/27 09:09:58;;;;;;;9.57;2.95;;;5.30;99.90;;;;;;5037726;28;20143;-73
2023/03/27 09:13:03;;;;;;;10.73;2.60;;;5.40;99.90;;;;;;5010006;28;20044;-76
2023/03/27 09:15:32;;;;;;;16.10;2.78;;;5.50;99.90;;;;;;5033428;28;20041;-74
2023/03/27 09:18:01;;;;;;;5.22;2.17;;;5.50;99.90;;;;;;5032724;28;20388;-76
2023/03/27 09:20:37;;;;;;;8.13;1.92;;;5.40;99.90;;;;;;5038144;28;20060;-74
2023/03/27 09:23:37;;;;;;;12.30;1.98;;;5.00;99.90;;;;;;5038184;28;20043;-75
2023/03/27 09:26:34;;;;;;;15.00;2.65;;;4.90;99.90;;;;;;5025941;28;20072;-74
2023/03/27 09:29:18;;;;;;;7.55;2.67;;;5.20;99.90;;;;;;5021214;28;20036;-74
2023/03/27 09:31:49;;;;;;;6.47;2.10;;;5.40;99.90;;;;;;5036084;28;20033;-74
2023/03/27 09:34:26;;;;;;;14.05;2.67;;;5.80;99.90;;;;;;5037679;28;20124;-73
2023/03/27 09:36:53;;;;;;;6.05;1.90;;;6.20;99.90;;;;;;5033564;28;20045;-72
2023/03/27 09:39:28;;;;;;;10.07;1.60;;;6.40;99.90;;;;;;5041128;28;20469;-73
2023/03/27 09:42:25;;;;;;;7.90;2.33;;;6.50;99.90;;;;;;5033236;28;20064;-71
2023/03/27 09:44:59;;;;;;;7.97;1.90;;;6.60;99.90;;;;;;5019709;28;20096;-68
2023/03/27 09:47:41;;;;;;;8.45;1.77;;;6.40;99.90;;;;;;5027266;28;20034;-71
2023/03/27 09:50:33;;;;;;;8.52;1.77;;;5.90;99.90;;;;;;5028834;28;20103;-72
2023/03/27 09:53:11;;;;;;;10.57;1.77;;;5.90;99.90;;;;;;5030672;28;20095;-75
2023/03/27 09:55:52;;;;;;;8.88;2.03;;;5.60;99.90;;;;;;5032746;28;20753;-74
2023/03/27 09:58:42;;;;;;;3.70;1.17;;;5.40;99.90;;;;;;5035512;28;20108;-71
2023/03/27 10:01:08;;;;;;;;;;;5.50;99.90;;;;;;5019627;28;20041;-74
2023/03/27 10:03:49;;;;;;;7.28;1.50;;;5.50;99.90;;;;;;5039910;28;19986;-72
2023/03/27 10:06:37;;;;;;;4.90;1.10;;;6.00;99.90;;;;;;5042304;28;20025;-73
2023/03/27 10:09:33;;;;;;;8.25;1.13;;;6.60;99.90;;;;;;5035510;28;20498;-73
2023/03/27 10:12:07;;;;;;;5.60;1.42;;;6.70;99.90;;;;;;5028748;28;20486;-72
2023/03/27 10:14:34;;;;;;;3.67;1.20;;;6.60;99.90;;;;;;5045958;28;20045;-72
2023/03/27 10:17:03;;;;;;;8.73;1.45;;;6.50;99.90;;;;;;5035096;28;20526;-74
2023/03/27 10:19:34;;;;;;;7.07;1.20;;;6.40;99.90;;;;;;5033955;28;20112;-73
2023/03/27 10:22:08;;;;;;;12.10;1.63;;;6.20;99.90;;;;;;5037137;28;20049;-73
2023/03/27 10:24:38;;;;;;;11.38;1.20;;;5.90;99.90;;;;;;5038620;28;20086;-72
2023/03/27 10:27:09;;;;;;;11.23;1.38;;;5.90;99.90;;;;;;5036392;28;20026;-72
2023/03/27 10:29:36;;;;;;;5.45;0.90;;;5.90;99.90;;;;;;5036361;28;20111;-74
2023/03/27 10:32:04;;;;;;;6.55;1.70;;;5.70;99.90;;;;;;5034382;28;20037;-76
2023/03/27 10:34:38;;;;;;;10.40;1.45;;;5.90;99.90;;;;;;5033148;28;20033;-75
2023/03/27 10:37:34;;;;;;;5.88;1.00;;;6.10;99.90;;;;;;5022421;28;20091;-74
2023/03/27 10:40:02;;;;;;;3.90;0.90;;;6.30;99.90;;;;;;5028939;28;20029;-74
2023/03/27 10:42:31;;;;;;;7.30;1.08;;;6.30;99.90;;;;;;5030872;28;20116;-75
2023/03/27 10:44:57;;;;;;;4.40;1.20;;;6.40;99.90;;;;;;5028044;28;20033;-76
2023/03/27 10:47:30;;;;;;;5.05;0.85;;;6.80;99.90;;;;;;5023469;28;20435;-73
2023/03/27 10:50:06;;;;;;;6.78;1.15;;;7.40;99.90;;;;;;5034396;28;20478;-75
2023/03/27 10:53:01;;;;;;;5.53;1.20;;;8.00;99.90;;;;;;5041331;28;20045;-69
2023/03/27 10:56:09;;;;;;;6.70;1.55;;;8.10;99.90;;;;;;5038364;28;20546;-74
2023/03/27 10:58:52;;;;;;;3.80;0.98;;;7.20;99.90;;;;;;5037694;28;20033;-74
2023/03/27 11:01:26;;;;;;;2.13;0.77;;;7.10;99.90;;;;;;5026927;28;20029;-70
2023/03/27 11:04:02;;;;;;;9.38;1.35;;;6.90;99.90;;;;;;5041366;28;20037;-68
2023/03/27 11:06:32;;;;;;;7.10;0.85;;;7.00;99.90;;;;;;5043530;28;20112;-70
2023/03/27 11:09:05;;;;;;;4.15;0.95;;;6.90;99.90;;;;;;5039835;28;20032;-70
2023/03/27 11:11:41;;;;;;;5.38;1.10;;;6.60;99.90;;;;;;5032189;28;20033;-71
2023/03/27 11:14:26;;;;;;;4.15;0.90;;;6.20;99.90;;;;;;5029456;28;20528;-70
2023/03/27 11:16:57;;;;;;;7.80;1.20;;;6.00;99.90;;;;;;5038185;28;20474;-68
2023/03/27 11:19:46;;;;;;;;;;;6.80;99.90;;;;;;5040520;28;20043;-73
2023/03/27 11:22:18;;;;;;;4.35;0.90;;;7.50;99.90;;;;;;5023201;28;19936;-69
2023/03/27 11:24:59;;;;;;;5.40;1.35;;;8.10;99.90;;;;;;5044308;28;20067;-73
2023/03/27 11:27:38;;;;;;;7.25;1.10;;;8.10;99.90;;;;;;5034940;28;20083;-70
2023/03/27 11:30:07;;;;;;;6.95;1.10;;;7.30;99.90;;;;;;5037148;28;20028;-70
2023/03/27 11:32:51;;;;;;;4.05;1.00;;;6.90;99.90;;;;;;5034931;28;20511;-72
2023/03/27 11:35:23;;;;;;;5.47;1.00;;;7.10;99.90;;;;;;5021875;28;20025;-73
2023/03/27 11:38:16;;;;;;;5.63;0.88;;;7.60;99.90;;;;;;5036382;28;20039;-72
2023/03/27 11:40:45;;;;;;;4.63;0.77;;;8.30;99.90;;;;;;5040710;28;20048;-71
2023/03/27 11:43:16;;;;;;;5.57;1.30;;;8.70;99.90;;;;;;5040149;28;20363;-72
2023/03/27 11:46:20;;;;;;;5.93;1.40;;;8.00;99.90;;;;;;5031592;28;20812;-71
2023/03/27 11:48:45;;;;;;;3.95;0.75;;;7.00;99.90;;;;;;5024256;28;20029;-71
2023/03/27 11:51:36;;;;;;;8.48;1.15;;;6.60;99.90;;;;;;5034260;28;20041;-71
2023/03/27 11:54:36;;;;;;;8.20;0.98;;;6.40;99.90;;;;;;5028284;28;20042;-72
2023/03/27 11:57:10;;;;;;;5.07;1.20;;;6.30;99.90;;;;;;5033899;28;20166;-70
2023/03/27 11:59:38;;;;;;;6.85;0.95;;;6.20;99.90;;;;;;5028897;28;20036;-74
2023/03/27 12:02:28;;;;;;;6.35;1.00;;;6.20;99.90;;;;;;5024597;28;20489;-70
2023/03/27 12:05:10;;;;;;;4.13;1.00;;;6.30;99.90;;;;;;5041702;28;20135;-70
2023/03/27 12:08:04;;;;;;;10.70;1.42;;;6.90;99.90;;;;;;5041173;28;20090;-71
2023/03/27 12:10:33;;;;;;;6.35;1.02;;;7.40;99.90;;;;;;5026101;28;20030;-70
2023/03/27 12:13:47;;;;;;;8.45;1.02;;;7.10;99.90;;;;;;5031665;28;20691;-69
2023/03/27 12:16:25;;;;;;;4.03;1.15;;;6.80;99.90;;;;;;5029073;28;20500;-69
2023/03/27 12:18:54;;;;;;;5.95;1.20;;;6.50;99.90;;;;;;5038147;28;20029;-70
2023/03/27 12:21:43;;;;;;;6.18;1.08;;;6.20;99.90;;;;;;5040072;28;20293;-70
2023/03/27 12:24:24;;;;;;;3.53;1.10;;;6.00;99.90;;;;;;5044824;28;20068;-71
2023/03/27 12:27:00;;;;;;;5.80;1.15;;;5.80;99.90;;;;;;5032052;28;20254;-72
2023/03/27 12:29:35;;;;;;;4.72;1.25;;;5.80;99.90;;;;;;5021071;28;20025;-71
2023/03/27 12:32:18;;;;;;;5.53;1.08;;;5.80;99.90;;;;;;5029532;28;20029;-72
2023/03/27 12:34:58;;;;;;;6.57;1.00;;;6.10;99.90;;;;;;5035302;28;20179;-72
2023/03/27 12:37:29;;;;;;;5.28;1.00;;;6.00;99.90;;;;;;5023712;28;20037;-69
2023/03/27 12:39:59;;;;;;;5.50;0.80;;;5.70;99.90;;;;;;5042032;28;20029;-71
2023/03/27 12:42:49;;;;;;;4.30;0.70;;;5.40;99.90;;;;;;5039339;28;20112;-70
2023/03/27 12:45:21;;;;;;;3.40;0.50;;;5.10;99.90;;;;;;5022494;28;20061;-69
2023/03/27 12:48:16;;;;;;;10.38;1.15;;;5.30;99.90;;;;;;5018122;28;20034;-70
2023/03/27 12:50:51;;;;;;;6.05;1.08;;;6.00;99.90;;;;;;5037557;28;20076;-70
2023/03/27 12:53:28;;;;;;;6.75;1.20;;;6.30;99.90;;;;;;5024072;28;20835;-71
2023/03/27 12:56:11;;;;;;;8.55;1.40;;;6.70;99.90;;;;;;5027697;28;20389;-70
2023/03/27 12:58:37;;;;;;;6.28;1.27;;;6.80;99.90;;;;;;5039871;28;20029;-74
2023/03/27 13:01:09;;;;;;;5.13;1.20;;;6.90;99.90;;;;;;5031370;28;20033;-66
2023/03/27 13:03:45;;;;;;;7.57;1.38;;;6.50;99.90;;;;;;5024669;28;20053;-72
2023/03/27 13:06:49;;;;;;;8.32;1.40;;;5.90;99.90;;;;;;5022348;28;20025;-70
2023/03/27 13:09:33;;;;;;;4.35;1.42;;;5.60;99.90;;;;;;5025902;28;20021;-70
2023/03/27 13:12:21;;;;;;;5.43;1.05;;;5.30;99.90;;;;;;5028294;28;20079;-66
2023/03/27 13:15:06;;;;;;;6.05;1.05;;;5.40;99.90;;;;;;5039389;28;20739;-70
2023/03/27 13:18:09;;;;;;;9.05;1.40;;;5.60;99.90;;;;;;5026466;28;20058;-70
2023/03/27 13:21:13;;;;;;;4.95;1.10;;;6.00;99.90;;;;;;5036590;28;20099;-70
2023/03/27 13:23:50;;;;;;;5.45;1.30;;;6.20;99.90;;;;;;5030054;28;20033;-71
2023/03/27 13:26:47;;;;;;;4.35;1.10;;;6.30;99.90;;;;;;5046684;28;20032;-70